Time;durP1;ratioP1;P1;durP2;ratioP2;P2;SDS_P1;SDS_P2;PMS_P1;PMS_P2;Temp;Humidity;BMP_temperature;BMP_pressure;BME280_temperature;BME280_humidity;BME280_pressure;Samples;Min_cycle;Max_cycle;Signal;HPM_P1;HPM_P2
2022/07/24 00:00:13;;;;;;;6.50;3.37;;;;;;;27.09;48.43;99579.16;4388030;32;33924;-79
2022/07/24 00:02:45;;;;;;;7.85;4.57;;;;;;;26.90;49.25;99579.84;4393391;32;33418;-80
2022/07/24 00:05:14;;;;;;;9.00;4.18;;;;;;;26.89;49.44;99578.97;4387541;32;34216;-81
2022/07/24 00:07:47;;;;;;;6.32;3.65;;;;;;;26.95;48.92;99575.81;4387883;32;33944;-79
2022/07/24 00:10:16;;;;;;;6.22;3.20;;;;;;;26.77;49.27;99574.69;4387782;32;34821;-80
2022/07/24 00:12:48;;;;;;;6.60;3.78;;;;;;;26.56;49.94;99564.84;4387462;32;34699;-79
2022/07/24 00:15:18;;;;;;;6.53;3.55;;;;;;;26.68;49.91;99568.31;4392972;32;35294;-78
2022/07/24 00:17:50;;;;;;;6.80;3.92;;;;;;;26.53;50.82;99585.47;4388365;32;33959;-78
2022/07/24 00:20:18;;;;;;;;;;;;;;;26.36;51.72;99593.03;4388580;32;34497;-79
2022/07/24 00:22:51;;;;;;;7.75;4.15;;;;;;;26.07;52.83;99605.13;4388431;32;34073;-79
2022/07/24 00:25:19;;;;;;;6.05;3.42;;;;;;;25.74;54.03;99614.75;4390302;32;33677;-79
2022/07/24 00:27:51;;;;;;;7.15;4.65;;;;;;;25.77;53.95;99614.50;4387747;32;34735;-79
2022/07/24 00:30:22;;;;;;;8.00;4.53;;;;;;;25.84;53.73;99610.41;4377722;32;33560;-79
2022/07/24 00:32:54;;;;;;;8.30;4.07;;;;;;;25.75;54.21;99614.63;4372705;32;33477;-80
2022/07/24 00:35:23;;;;;;;6.32;3.67;;;;;;;25.60;54.42;99609.66;4372427;32;33628;-80
2022/07/24 00:37:55;;;;;;;7.05;3.67;;;;;;;25.60;54.13;99609.66;4372335;32;33712;-80
2022/07/24 00:40:24;;;;;;;8.30;3.87;;;;;;;25.75;53.51;99609.31;4371755;32;33391;-80
2022/07/24 00:42:56;;;;;;;7.28;3.95;;;;;;;25.59;53.61;99608.81;4377677;32;34128;-80
2022/07/24 00:45:26;;;;;;;7.12;3.65;;;;;;;25.68;53.44;99612.56;4371640;32;33511;-80
2022/07/24 00:48:11;;;;;;;6.43;3.92;;;;;;;25.55;53.71;99610.84;4372174;32;34163;-79
2022/07/24 00:50:40;;;;;;;6.70;3.30;;;;;;;25.67;53.66;99618.84;4371919;32;35872;-79
2022/07/24 00:53:09;;;;;;;6.95;4.30;;;;;;;25.72;53.36;99612.22;4384282;32;34778;-79
2022/07/24 00:55:42;;;;;;;7.05;3.47;;;;;;;25.74;53.41;99609.44;4387213;32;33683;-78
2022/07/24 00:58:12;;;;;;;6.70;3.60;;;;;;;25.65;53.83;99607.50;4392574;32;33690;-79
2022/07/24 01:00:45;;;;;;;7.37;3.65;;;;;;;26.02;52.81;99608.16;4386921;32;33667;-81
2022/07/24 01:03:14;;;;;;;7.10;4.03;;;;;;;26.04;52.44;99605.37;4388098;32;34162;-78
2022/07/24 01:05:45;;;;;;;7.30;4.07;;;;;;;25.80;53.08;99598.31;4389277;32;34359;-79
2022/07/24 01:08:14;;;;;;;7.12;3.87;;;;;;;25.77;53.38;99593.25;4389104;32;33698;-80
2022/07/24 01:10:46;;;;;;;7.78;3.78;;;;;;;25.70;53.35;99592.88;4390214;32;33772;-79
2022/07/24 01:13:15;;;;;;;6.28;3.12;;;;;;;26.07;52.27;99594.50;4392591;32;34225;-79
2022/07/24 01:15:47;;;;;;;5.95;3.10;;;;;;;26.12;52.17;99587.00;4389650;32;34276;-78
2022/07/24 01:18:17;;;;;;;6.28;3.40;;;;;;;25.84;52.45;99588.31;4383397;32;34486;-80
2022/07/24 01:20:48;;;;;;;5.78;3.62;;;;;;;25.86;52.28;99600.53;4372673;32;33994;-80
2022/07/24 01:23:17;;;;;;;5.78;2.90;;;;;;;26.17;51.19;99595.47;4371992;32;34396;-79
2022/07/24 01:25:51;;;;;;;6.72;3.75;;;;;;;26.23;50.76;99597.63;4377149;32;33378;-79
2022/07/24 01:28:20;;;;;;;7.53;3.62;;;;;;;26.00;50.97;99602.13;4372633;32;33850;-79
2022/07/24 01:30:50;;;;;;;5.82;3.10;;;;;;;26.16;49.99;99599.91;4371835;32;33986;-80
2022/07/24 01:33:21;;;;;;;6.47;3.28;;;;;;;26.08;50.40;99596.19;4371804;32;33921;-79
2022/07/24 01:35:53;;;;;;;5.68;2.97;;;;;;;26.24;49.76;99587.81;4371714;32;34313;-78
2022/07/24 01:38:22;;;;;;;7.85;4.12;;;;;;;26.11;49.89;99591.47;4371685;32;33133;-78
2022/07/24 01:40:58;;;;;;;8.20;3.95;;;;;;;26.16;49.67;99577.81;4376653;32;33899;-80
2022/07/24 01:43:27;;;;;;;5.03;2.60;;;;;;;25.91;50.39;99578.94;4371336;32;33874;-81
2022/07/24 01:46:01;;;;;;;5.90;3.42;;;;;;;26.01;50.48;99579.03;4371157;32;33496;-80
2022/07/24 01:48:30;;;;;;;6.18;2.75;;;;;;;26.45;48.96;99578.12;4373154;32;34026;-78
2022/07/24 01:51:01;;;;;;;5.35;3.15;;;;;;;26.53;48.80;99570.41;4375075;32;33795;-80
2022/07/24 01:53:30;;;;;;;5.50;3.00;;;;;;;26.30;49.31;99584.69;4393241;32;33154;-79
2022/07/24 01:55:59;;;;;;;4.62;2.80;;;;;;;26.42;49.21;99588.19;4391338;32;33764;-79
2022/07/24 01:58:27;;;;;;;4.57;2.30;;;;;;;26.37;49.27;99593.88;4389951;32;33780;-78
2022/07/24 02:00:59;;;;;;;6.20;3.15;;;;;;;26.38;49.16;99596.37;4393815;32;34899;-79
2022/07/24 02:03:28;;;;;;;5.40;3.15;;;;;;;26.23;49.85;99592.31;4391460;32;34188;-81
2022/07/24 02:06:05;;;;;;;4.37;2.75;;;;;;;26.22;51.48;99593.28;4389764;32;33113;-81
2022/07/24 02:08:33;;;;;;;5.70;3.30;;;;;;;25.89;53.80;99587.00;4393725;32;33923;-80
2022/07/24 02:11:04;;;;;;;6.37;3.53;;;;;;;26.11;53.03;99580.84;4388616;32;33620;-80
2022/07/24 02:13:33;;;;;;;7.70;2.83;;;;;;;25.88;53.27;99577.34;4388325;32;34119;-79
2022/07/24 02:16:04;;;;;;;7.87;3.75;;;;;;;25.89;53.55;99563.09;4389881;32;34173;-80
2022/07/24 02:18:33;;;;;;;7.30;3.72;;;;;;;25.85;54.30;99558.94;4388323;32;33718;-83
2022/07/24 02:21:10;;;;;;;6.22;3.53;;;;;;;25.93;52.71;99569.03;4393553;32;34837;-82
2022/07/24 02:23:39;;;;;;;5.62;3.05;;;;;;;25.71;53.09;99575.16;4376996;32;34784;-85
2022/07/24 02:26:14;;;;;;;6.35;3.05;;;;;;;25.72;53.03;99564.38;4372967;32;33604;-81
2022/07/24 02:28:44;;;;;;;6.15;2.58;;;;;;;25.63;52.98;99566.91;4372963;32;33656;-83
2022/07/24 02:31:18;;;;;;;6.25;3.25;;;;;;;25.52;53.57;99573.06;4372988;32;33881;-81
2022/07/24 02:33:52;;;;;;;6.20;2.85;;;;;;;25.62;52.79;99565.22;4373186;32;34489;-82
2022/07/24 02:36:23;;;;;;;5.28;2.85;;;;;;;25.40;54.09;99563.41;4378864;32;34352;-79
2022/07/24 02:38:52;;;;;;;4.80;2.55;;;;;;;25.48;52.90;99568.94;4376034;32;34107;-80
2022/07/24 02:41:20;;;;;;;11.38;3.72;;;;;;;25.59;53.04;99562.78;4376740;32;34815;-81
2022/07/24 02:43:54;;;;;;;4.37;2.33;;;;;;;25.65;52.05;99552.53;4377604;32;34049;-81
2022/07/24 02:46:23;;;;;;;7.32;3.42;;;;;;;25.80;51.85;99534.53;4375850;32;35393;-81
2022/07/24 02:48:52;;;;;;;4.82;2.40;;;;;;;25.82;51.35;99523.81;4375597;32;34531;-82
2022/07/24 02:51:22;;;;;;;5.22;2.80;;;;;;;26.07;50.03;99530.69;4379287;32;34035;-86
2022/07/24 02:54:01;;;;;;;5.75;3.12;;;;;;;26.29;50.02;99519.16;4389912;32;34768;-83
2022/07/24 02:56:29;;;;;;;5.57;3.45;;;;;;;26.01;50.45;99520.56;4387827;32;33400;-81
2022/07/24 02:59:01;;;;;;;5.90;2.17;;;;;;;26.16;49.95;99517.50;4388258;32;34720;-81
2022/07/24 03:01:30;;;;;;;6.37;2.95;;;;;;;26.04;49.88;99528.28;4388008;32;33707;-81
2022/07/24 03:03:59;;;;;;;5.28;2.83;;;;;;;25.72;51.00;99529.00;4379893;32;34183;-81
2022/07/24 03:06:29;;;;;;;5.10;2.80;;;;;;;25.76;51.13;99533.12;4388032;32;33454;-81
2022/07/24 03:08:59;;;;;;;4.43;2.63;;;;;;;25.93;50.43;99537.97;4387857;32;35857;-81
2022/07/24 03:11:28;;;;;;;;;;;;;;;26.02;50.34;99540.84;4387935;32;34631;-83
2022/07/24 03:14:03;;;;;;;6.03;3.20;;;;;;;25.72;50.89;99536.97;4387982;32;34544;-81
2022/07/24 03:16:32;;;;;;;4.82;2.78;;;;;;;25.81;51.31;99546.88;4387985;32;33626;-83
2022/07/24 03:19:10;;;;;;;6.15;2.83;;;;;;;25.90;50.78;99545.31;4393637;32;33705;-82
2022/07/24 03:21:44;;;;;;;6.82;2.85;;;;;;;25.93;51.01;99547.75;4387834;32;34665;-80
2022/07/24 03:24:16;;;;;;;5.97;3.00;;;;;;;25.99;50.78;99549.06;4387754;32;33871;-80
2022/07/24 03:26:47;;;;;;;6.03;2.87;;;;;;;26.09;50.06;99537.56;4388841;32;33622;-82
2022/07/24 03:29:16;;;;;;;5.68;2.92;;;;;;;26.27;50.68;99532.59;4389862;32;33771;-80
2022/07/24 03:31:46;;;;;;;5.87;2.90;;;;;;;26.23;50.71;99528.50;4392313;32;34648;-80
2022/07/24 03:34:16;;;;;;;4.93;2.60;;;;;;;26.49;48.97;99522.88;4393306;32;34116;-81
2022/07/24 03:36:51;;;;;;;8.07;3.58;;;;;;;26.37;48.01;99511.41;4387861;32;33578;-82
2022/07/24 03:39:19;;;;;;;6.57;3.33;;;;;;;26.11;49.95;99521.50;4388083;32;34248;-82
2022/07/24 03:41:51;;;;;;;5.10;2.35;;;;;;;26.21;49.42;99527.75;4387867;32;33922;-80
2022/07/24 03:44:20;;;;;;;5.25;3.03;;;;;;;26.45;48.07;99535.56;4387502;32;34106;-80
2022/07/24 03:46:52;;;;;;;5.53;2.80;;;;;;;26.44;48.07;99536.53;4393400;32;33575;-81
2022/07/24 03:49:21;;;;;;;5.37;2.55;;;;;;;26.29;48.92;99538.66;4374108;32;34405;-82
2022/07/24 03:51:55;;;;;;;6.53;2.58;;;;;;;26.30;48.53;99540.31;4376164;32;34092;-82
2022/07/24 03:54:24;;;;;;;5.45;2.72;;;;;;;26.38;48.24;99539.69;4387258;32;34513;-80
2022/07/24 03:56:55;;;;;;;7.47;3.47;;;;;;;26.26;48.64;99536.22;4387911;32;33278;-80
2022/07/24 03:59:23;;;;;;;;;;;;;;;26.29;48.34;99532.47;4389959;32;34431;-81
2022/07/24 04:01:55;;;;;;;5.62;2.67;;;;;;;25.96;49.33;99539.53;4393079;32;34189;-81
2022/07/24 04:04:25;;;;;;;5.15;2.92;;;;;;;25.73;49.96;99539.53;4387709;32;34279;-81
2022/07/24 04:06:58;;;;;;;4.43;2.28;;;;;;;25.72;50.18;99542.28;4387253;32;34405;-83
2022/07/24 04:09:27;;;;;;;4.93;2.92;;;;;;;25.55;50.63;99549.75;4387378;32;33464;-80
2022/07/24 04:12:00;;;;;;;4.80;2.47;;;;;;;25.65;50.55;99554.34;4386598;32;34232;-79
2022/07/24 04:14:29;;;;;;;6.82;2.70;;;;;;;25.36;51.28;99554.81;4393484;32;34052;-81
2022/07/24 04:17:00;;;;;;;5.15;2.60;;;;;;;25.46;51.40;99552.28;4387555;32;34430;-79
2022/07/24 04:19:29;;;;;;;6.00;2.37;;;;;;;25.53;50.82;99554.34;4387961;32;34054;-79
2022/07/24 04:22:04;;;;;;;5.07;2.72;;;;;;;25.61;50.58;99544.94;4387922;32;33896;-79
2022/07/24 04:24:34;;;;;;;5.85;3.17;;;;;;;25.65;50.66;99543.72;4388853;32;34651;-78
2022/07/24 04:27:05;;;;;;;5.50;3.08;;;;;;;25.24;51.84;99545.97;4389354;32;34312;-79
2022/07/24 04:29:34;;;;;;;4.72;2.72;;;;;;;25.43;51.41;99550.72;4393023;32;34710;-79
2022/07/24 04:32:06;;;;;;;6.37;2.72;;;;;;;25.42;51.58;99550.81;4388255;32;33880;-78
2022/07/24 04:34:38;;;;;;;5.53;3.12;;;;;;;25.42;51.83;99557.00;4386265;32;34524;-79
2022/07/24 04:37:08;;;;;;;4.82;2.50;;;;;;;25.63;51.46;99567.75;4372529;32;33927;-80
2022/07/24 04:39:36;;;;;;;5.43;2.97;;;;;;;25.67;51.36;99571.03;4372230;32;32875;-78
2022/07/24 04:42:08;;;;;;;6.53;3.78;;;;;;;25.81;51.07;99578.78;4377776;32;33825;-80
2022/07/24 04:44:37;;;;;;;6.10;2.78;;;;;;;25.72;51.21;99584.78;4372446;32;34096;-78
2022/07/24 04:47:11;;;;;;;5.50;2.90;;;;;;;25.65;51.52;99594.22;4374917;32;33599;-80
2022/07/24 04:49:40;;;;;;;4.75;3.20;;;;;;;25.65;51.66;99589.72;4372545;32;33752;-79
2022/07/24 04:52:11;;;;;;;6.20;3.35;;;;;;;25.70;51.33;99592.03;4377459;32;34018;-79
2022/07/24 04:54:39;;;;;;;6.62;3.80;;;;;;;25.76;51.40;99602.22;4387004;32;33933;-80
2022/07/24 04:57:09;;;;;;;5.65;2.95;;;;;;;25.83;51.30;99603.41;4392648;32;33797;-78
2022/07/24 04:59:41;;;;;;;6.05;2.95;;;;;;;25.82;51.16;99604.37;4387250;32;33842;-79
2022/07/24 05:02:15;;;;;;;5.37;3.03;;;;;;;25.70;52.01;99603.50;4386940;32;34285;-79
2022/07/24 05:04:44;;;;;;;5.50;2.97;;;;;;;25.44;52.48;99613.50;4387522;32;34528;-78
2022/07/24 05:07:17;;;;;;;5.35;3.05;;;;;;;25.85;51.61;99621.88;4389436;32;33374;-79
2022/07/24 05:09:46;;;;;;;6.25;3.10;;;;;;;25.84;51.80;99622.88;4392843;32;34481;-79
2022/07/24 05:12:16;;;;;;;5.72;2.95;;;;;;;25.82;51.85;99622.13;4388795;32;34781;-79
2022/07/24 05:14:44;;;;;;;6.93;3.53;;;;;;;25.87;52.03;99628.81;4383280;32;33932;-78
2022/07/24 05:17:18;;;;;;;5.80;3.15;;;;;;;25.86;51.79;99628.94;4375471;32;33686;-80
2022/07/24 05:19:47;;;;;;;5.65;3.15;;;;;;;25.96;51.91;99633.41;4374730;32;33959;-79
2022/07/24 05:22:20;;;;;;;6.45;3.60;;;;;;;26.04;51.77;99642.59;4388196;32;34780;-78
2022/07/24 05:24:49;;;;;;;5.45;3.05;;;;;;;26.05;51.99;99644.31;4392411;32;34776;-78
2022/07/24 05:27:22;;;;;;;6.70;3.45;;;;;;;26.26;51.37;99647.06;4387073;32;33474;-78
2022/07/24 05:29:51;;;;;;;5.68;3.22;;;;;;;26.48;50.85;99651.50;4386598;32;33621;-78
2022/07/24 05:32:22;;;;;;;5.18;2.90;;;;;;;26.34;51.11;99642.84;4386745;32;33813;-79
2022/07/24 05:34:51;;;;;;;6.28;3.45;;;;;;;26.53;51.04;99649.31;4386409;32;34146;-78
2022/07/24 05:37:22;;;;;;;6.15;3.37;;;;;;;26.57;50.79;99651.66;4392027;32;33738;-79
2022/07/24 05:39:52;;;;;;;5.93;3.05;;;;;;;26.95;49.72;99646.88;4386556;32;34201;-78
2022/07/24 05:42:26;;;;;;;5.47;2.90;;;;;;;26.71;49.93;99650.53;4386909;32;34126;-81
2022/07/24 05:44:55;;;;;;;7.93;3.62;;;;;;;26.60;50.54;99655.88;4386429;32;33016;-80
2022/07/24 05:47:27;;;;;;;5.90;3.47;;;;;;;26.95;49.34;99641.53;4386347;32;34452;-82
2022/07/24 05:49:56;;;;;;;6.95;3.58;;;;;;;27.11;49.67;99646.41;4386369;32;33843;-80
2022/07/24 05:52:26;;;;;;;8.80;3.72;;;;;;;27.21;48.74;99644.75;4391903;32;33821;-82
2022/07/24 05:54:55;;;;;;;6.45;3.53;;;;;;;27.34;48.79;99644.56;4387799;32;34202;-80
2022/07/24 05:57:30;;;;;;;6.37;3.33;;;;;;;27.49;48.46;99643.25;4390419;32;33503;-78
2022/07/24 05:59:59;;;;;;;6.22;3.47;;;;;;;27.05;49.07;99653.13;4391606;32;34678;-79
2022/07/24 06:02:39;;;;;;;7.15;3.58;;;;;;;27.03;49.25;99652.38;4386641;32;33985;-80
2022/07/24 06:05:10;;;;;;;7.05;3.47;;;;;;;26.87;49.60;99647.50;4390418;32;33790;-79
2022/07/24 06:07:41;;;;;;;6.57;3.67;;;;;;;26.83;49.60;99653.19;4392020;32;33441;-78
2022/07/24 06:10:11;;;;;;;6.87;3.67;;;;;;;27.08;48.98;99646.69;4387382;32;33534;-78
2022/07/24 06:12:43;;;;;;;7.18;3.75;;;;;;;27.09;48.78;99651.06;4386840;32;33984;-79
2022/07/24 06:15:16;;;;;;;8.80;4.00;;;;;;;27.11;48.75;99651.75;4386232;32;34841;-79
2022/07/24 06:17:45;;;;;;;8.30;4.18;;;;;;;27.14;48.09;99664.84;4383041;32;33614;-79
2022/07/24 06:20:17;;;;;;;7.50;3.70;;;;;;;27.02;48.77;99656.88;4376860;32;33887;-78
2022/07/24 06:22:47;;;;;;;7.80;3.70;;;;;;;27.38;48.92;99657.50;4370728;32;34640;-80
2022/07/24 06:25:26;;;;;;;7.75;4.43;;;;;;;27.31;49.91;99666.13;4370929;32;34846;-78
2022/07/24 06:28:03;;;;;;;7.30;4.37;;;;;;;27.63;49.43;99664.25;4370861;32;33188;-79
2022/07/24 06:30:36;;;;;;;6.07;3.28;;;;;;;27.49;48.76;99669.91;4370648;32;34725;-79
2022/07/24 06:33:11;;;;;;;6.72;4.43;;;;;;;27.53;49.03;99679.34;4370649;32;33840;-80
2022/07/24 06:35:43;;;;;;;7.80;4.47;;;;;;;27.67;48.78;99673.69;4378161;32;34200;-79
2022/07/24 06:38:13;;;;;;;7.40;4.03;;;;;;;27.59;48.52;99680.63;4375735;32;33590;-79
2022/07/24 06:40:46;;;;;;;6.72;3.78;;;;;;;27.81;48.13;99677.84;4374287;32;32975;-77
2022/07/24 06:43:15;;;;;;;7.28;4.12;;;;;;;27.70;47.56;99687.72;4374248;32;33681;-78
2022/07/24 06:45:44;;;;;;;8.35;4.80;;;;;;;27.42;48.87;99684.72;4376916;32;34804;-80
2022/07/24 06:48:16;;;;;;;8.18;4.50;;;;;;;27.65;48.21;99675.63;4375638;32;32797;-79
2022/07/24 06:50:49;;;;;;;7.18;3.92;;;;;;;27.86;48.12;99677.50;4378583;32;33306;-79
2022/07/24 06:53:19;;;;;;;6.82;3.80;;;;;;;27.79;47.83;99687.78;4387779;32;34022;-79
2022/07/24 06:55:53;;;;;;;7.05;3.87;;;;;;;27.78;47.33;99686.09;4388779;32;33251;-78
2022/07/24 06:58:22;;;;;;;7.87;4.10;;;;;;;27.99;47.52;99688.78;4384281;32;33568;-80
2022/07/24 07:00:52;;;;;;;6.78;3.95;;;;;;;28.05;47.60;99692.72;4373100;32;33701;-79
2022/07/24 07:03:20;;;;;;;7.97;4.28;;;;;;;28.13;47.51;99694.75;4378391;32;33806;-80
2022/07/24 07:05:53;;;;;;;7.40;4.30;;;;;;;28.14;47.00;99693.78;4376656;32;34795;-79
2022/07/24 07:08:23;;;;;;;8.57;4.40;;;;;;;28.03;47.11;99698.22;4372841;32;34048;-80
2022/07/24 07:10:56;;;;;;;7.95;4.22;;;;;;;28.11;47.20;99696.72;4373178;32;33056;-79
2022/07/24 07:13:25;;;;;;;7.60;3.62;;;;;;;27.98;46.92;99700.44;4372822;32;34011;-80
2022/07/24 07:15:54;;;;;;;8.43;4.45;;;;;;;28.11;46.80;99700.22;4372828;32;33904;-81
2022/07/24 07:18:23;;;;;;;6.22;3.60;;;;;;;28.09;46.53;99697.66;4378019;32;33208;-79
2022/07/24 07:20:55;;;;;;;7.72;4.37;;;;;;;28.32;45.73;99700.19;4373051;32;33804;-80
2022/07/24 07:23:29;;;;;;;8.30;3.80;;;;;;;28.63;45.09;99698.38;4372714;32;33891;-79
2022/07/24 07:26:07;;;;;;;8.77;4.47;;;;;;;28.29;45.35;99703.09;4372875;32;34356;-79
2022/07/24 07:28:41;;;;;;;9.02;4.12;;;;;;;28.36;45.23;99704.25;4372317;32;34039;-79
2022/07/24 07:31:10;;;;;;;8.68;4.47;;;;;;;28.92;44.61;99701.09;4372824;32;34304;-79
2022/07/24 07:33:42;;;;;;;7.55;4.60;;;;;;;28.96;44.31;99706.16;4378199;32;34564;-80
2022/07/24 07:36:11;;;;;;;7.22;4.15;;;;;;;28.82;44.12;99704.72;4372969;32;34015;-79
2022/07/24 07:38:44;;;;;;;6.03;3.33;;;;;;;28.79;44.02;99700.50;4372688;32;34351;-80
2022/07/24 07:41:13;;;;;;;5.45;3.53;;;;;;;28.83;43.42;99693.91;4373026;32;33558;-78
2022/07/24 07:43:45;;;;;;;8.20;5.07;;;;;;;29.00;43.47;99695.06;4373457;32;33982;-79
2022/07/24 07:46:14;;;;;;;8.50;4.45;;;;;;;29.60;42.18;99700.31;4377162;32;33937;-78
2022/07/24 07:48:46;;;;;;;8.40;4.37;;;;;;;29.50;41.80;99705.69;4372415;32;34155;-80
2022/07/24 07:51:16;;;;;;;8.13;4.20;;;;;;;29.25;41.44;99698.22;4360021;32;32481;-81
2022/07/24 07:53:53;;;;;;;7.22;4.00;;;;;;;29.56;41.26;99697.09;4389011;32;34024;-79
2022/07/24 07:56:22;;;;;;;6.25;3.80;;;;;;;29.53;40.40;99699.22;4387917;32;34780;-78
2022/07/24 07:58:54;;;;;;;7.97;4.60;;;;;;;29.23;41.04;99709.03;4387990;32;33538;-78
2022/07/24 08:01:32;;;;;;;6.85;3.87;;;;;;;29.17;40.69;99706.94;4393180;32;34522;-78
2022/07/24 08:04:01;;;;;;;7.28;4.07;;;;;;;29.50;40.67;99707.47;4387079;32;33955;-79
2022/07/24 08:06:34;;;;;;;6.72;3.67;;;;;;;29.73;40.09;99703.56;4387913;32;34064;-79
2022/07/24 08:09:05;;;;;;;8.05;4.03;;;;;;;29.75;39.05;99711.47;4387451;32;34328;-79
2022/07/24 08:11:37;;;;;;;6.72;4.20;;;;;;;29.58;39.18;99704.97;4389218;32;34846;-79
2022/07/24 08:14:06;;;;;;;6.85;3.87;;;;;;;29.35;39.80;99709.75;4387462;32;34136;-81
2022/07/24 08:16:36;;;;;;;6.82;3.12;;;;;;;29.52;38.82;99713.53;4392799;32;34198;-80
2022/07/24 08:19:04;;;;;;;6.10;3.75;;;;;;;29.29;38.96;99721.84;4387308;32;33698;-81
2022/07/24 08:21:37;;;;;;;7.65;4.00;;;;;;;29.17;39.72;99711.44;4388299;32;33722;-80
2022/07/24 08:24:08;;;;;;;7.15;3.35;;;;;;;29.34;39.57;99710.75;4388687;32;34538;-79
2022/07/24 08:26:38;;;;;;;6.60;4.10;;;;;;;29.07;39.95;99711.44;4388483;32;34916;-80
2022/07/24 08:29:06;;;;;;;5.93;3.92;;;;;;;29.12;40.30;99711.84;4382864;32;33909;-80
2022/07/24 08:31:42;;;;;;;7.28;3.83;;;;;;;29.35;39.93;99715.94;4374431;32;34066;-81
2022/07/24 08:34:11;;;;;;;7.45;4.35;;;;;;;29.41;39.73;99709.19;4373827;32;35017;-79
2022/07/24 08:36:45;;;;;;;7.75;4.25;;;;;;;29.22;40.53;99726.06;4373033;32;34141;-81
2022/07/24 08:39:17;;;;;;;9.18;4.72;;;;;;;29.06;40.30;99725.72;4372796;32;34224;-81
2022/07/24 08:41:54;;;;;;;6.57;3.97;;;;;;;29.26;40.30;99724.81;4372660;32;33829;-78
2022/07/24 08:44:25;;;;;;;9.82;3.50;;;;;;;29.23;40.24;99725.06;4377655;32;34667;-78
2022/07/24 08:46:55;;;;;;;6.72;3.70;;;;;;;29.78;39.00;99727.22;4372061;32;34205;-78
2022/07/24 08:49:31;;;;;;;6.10;3.35;;;;;;;29.73;38.79;99722.28;4372152;32;33589;-79
2022/07/24 08:52:08;;;;;;;6.28;3.45;;;;;;;29.75;38.71;99716.81;4376837;32;34509;-81
2022/07/24 08:54:39;;;;;;;6.50;3.47;;;;;;;29.68;38.16;99727.22;4387396;32;34709;-79
2022/07/24 08:57:08;;;;;;;6.75;3.62;;;;;;;29.76;37.76;99722.00;4387029;32;33306;-79
2022/07/24 08:59:38;;;;;;;5.90;3.53;;;;;;;29.78;37.53;99729.88;4392665;32;32781;-79
2022/07/24 09:02:12;;;;;;;7.47;4.00;;;;;;;29.69;37.95;99720.88;4387258;32;34059;-81
2022/07/24 09:04:44;;;;;;;5.85;2.65;;;;;;;29.57;37.10;99738.00;4386916;32;34096;-80
2022/07/24 09:07:15;;;;;;;5.78;3.35;;;;;;;29.37;37.38;99720.31;4388227;32;34333;-80
2022/07/24 09:09:46;;;;;;;;;;;;;;;29.60;37.53;99734.22;4389090;32;33516;-79
2022/07/24 09:12:20;;;;;;;6.78;3.50;;;;;;;29.48;37.56;99737.06;4389437;32;34368;-78
2022/07/24 09:14:56;;;;;;;5.75;3.50;;;;;;;29.81;37.37;99729.59;4392558;32;34268;-81
2022/07/24 09:17:25;;;;;;;6.45;3.60;;;;;;;29.93;37.51;99725.75;4391058;32;33639;-79
2022/07/24 09:19:57;;;;;;;7.40;3.53;;;;;;;30.23;37.14;99731.91;4377220;32;34226;-78
2022/07/24 09:22:38;;;;;;;6.95;3.62;;;;;;;30.11;36.36;99728.56;4374936;32;34234;-80
2022/07/24 09:25:17;;;;;;;5.82;3.53;;;;;;;30.20;35.90;99738.41;4373435;32;33964;-78
2022/07/24 09:27:51;;;;;;;6.18;3.30;;;;;;;30.20;35.67;99734.84;4372420;32;34083;-80
2022/07/24 09:30:28;;;;;;;5.22;3.40;;;;;;;30.74;35.19;99748.50;4377364;32;33711;-80
2022/07/24 09:32:58;;;;;;;6.62;3.62;;;;;;;30.66;34.90;99746.53;4371988;32;33996;-79
2022/07/24 09:35:32;;;;;;;7.80;3.58;;;;;;;30.88;34.75;99740.00;4371729;32;33906;-80
2022/07/24 09:38:02;;;;;;;6.05;3.17;;;;;;;30.94;34.38;99752.78;4371621;32;34054;-80
2022/07/24 09:40:37;;;;;;;6.22;2.95;;;;;;;30.93;34.31;99761.81;4371547;32;33492;-79
2022/07/24 09:43:17;;;;;;;5.82;3.55;;;;;;;30.62;33.90;99747.84;4371574;32;33952;-80
2022/07/24 09:45:53;;;;;;;7.72;3.72;;;;;;;30.41;34.44;99743.53;4377036;32;34958;-79
2022/07/24 09:48:25;;;;;;;7.70;2.90;;;;;;;30.48;35.39;99753.69;4375861;32;33675;-81
2022/07/24 09:51:05;;;;;;;5.95;3.37;;;;;;;30.83;34.04;99756.53;4371495;32;34261;-81
2022/07/24 09:53:42;;;;;;;4.70;2.87;;;;;;;30.57;33.84;99756.31;4374201;32;34583;-80
2022/07/24 09:56:18;;;;;;;6.90;2.80;;;;;;;30.37;33.03;99749.34;4386234;32;33971;-80
2022/07/24 09:58:50;;;;;;;5.85;3.08;;;;;;;30.34;32.18;99750.47;4389000;32;34022;-79
2022/07/24 10:01:28;;;;;;;5.68;3.30;;;;;;;30.51;33.38;99758.72;4390405;32;33183;-80
2022/07/24 10:04:01;;;;;;;5.45;2.97;;;;;;;30.26;34.45;99753.03;4383539;32;34039;-79
2022/07/24 10:06:31;;;;;;;5.25;2.70;;;;;;;30.40;32.11;99754.41;4376087;32;34667;-80
2022/07/24 10:09:03;;;;;;;6.85;3.83;;;;;;;30.39;32.48;99753.56;4374442;32;34136;-80
2022/07/24 10:11:35;;;;;;;6.00;2.97;;;;;;;30.42;32.87;99752.41;4376427;32;34261;-80
2022/07/24 10:14:11;;;;;;;6.78;3.85;;;;;;;30.50;32.58;99744.50;4373074;32;33113;-81
2022/07/24 10:16:45;;;;;;;6.90;3.45;;;;;;;30.55;33.41;99749.44;4374045;32;34097;-79
2022/07/24 10:19:40;;;;;;;6.10;3.30;;;;;;;30.43;33.72;99738.06;4378880;32;34026;-78
2022/07/24 10:22:12;;;;;;;3.78;2.22;;;;;;;30.95;32.86;99742.91;4378478;32;33687;-78
2022/07/24 10:25:00;;;;;;;7.55;2.67;;;;;;;30.90;31.28;99751.38;4373130;32;34588;-78
2022/07/24 10:27:41;;;;;;;4.57;2.62;;;;;;;30.92;30.86;99754.75;4373285;32;33999;-81
2022/07/24 10:30:14;;;;;;;5.18;2.53;;;;;;;30.81;30.32;99746.91;4372771;32;34119;-79
2022/07/24 10:32:46;;;;;;;4.72;2.78;;;;;;;30.81;31.34;99747.75;4374189;32;32826;-79
2022/07/24 10:35:19;;;;;;;5.15;2.83;;;;;;;30.89;30.99;99752.38;4373241;32;33472;-81
2022/07/24 10:38:00;;;;;;;6.37;2.55;;;;;;;31.03;30.84;99748.38;4378582;32;34056;-79
2022/07/24 10:40:38;;;;;;;11.43;4.47;;;;;;;31.12;31.47;99754.66;4374041;32;34882;-79
2022/07/24 10:43:15;;;;;;;;;;;;;;;30.63;31.39;99753.03;4373624;32;32636;-80
2022/07/24 10:45:52;;;;;;;4.97;2.55;;;;;;;30.50;30.43;99741.84;4374453;32;33254;-79
2022/07/24 10:48:30;;;;;;;4.97;2.70;;;;;;;30.31;31.10;99749.94;4375608;32;34026;-79
2022/07/24 10:51:13;;;;;;;5.57;2.83;;;;;;;30.74;30.91;99753.84;4374831;32;34385;-80
2022/07/24 10:53:46;;;;;;;5.28;3.03;;;;;;;30.99;30.03;99747.81;4377758;32;33331;-78
2022/07/24 10:56:20;;;;;;;5.15;2.62;;;;;;;31.32;30.09;99744.66;4393259;32;33683;-80
2022/07/24 10:59:04;;;;;;;5.82;2.83;;;;;;;31.32;29.10;99745.50;4393489;32;34911;-79
2022/07/24 11:01:36;;;;;;;5.15;2.72;;;;;;;31.26;28.77;99746.91;4389455;32;33847;-79
2022/07/24 11:04:27;;;;;;;6.45;3.03;;;;;;;31.27;28.29;99731.72;4387932;32;33431;-80
2022/07/24 11:07:15;;;;;;;5.37;2.72;;;;;;;31.11;28.89;99734.22;4387852;32;33625;-79
2022/07/24 11:09:56;;;;;;;4.55;2.55;;;;;;;30.85;30.07;99726.87;4373206;32;33754;-78
2022/07/24 11:12:39;;;;;;;4.43;2.35;;;;;;;31.13;30.29;99724.19;4372515;32;34873;-80
2022/07/24 11:18:14;;;;;;;3.28;1.62;;;;;;;31.13;27.90;99732.22;4373542;32;33602;-79
2022/07/24 11:20:43;;;;;;;4.53;2.25;;;;;;;31.00;28.30;99727.22;4378029;32;33864;-80
2022/07/24 11:23:20;;;;;;;3.78;2.25;;;;;;;30.91;28.58;99720.94;4372625;32;33973;-79
